sensor_id;sensor_type;location;lat;lon;timestamp;temperature;humidity
31729;DHT22;18309;43.658;1.312;2024-01-16T00:02:11;12.70;99.90
31729;DHT22;18309;43.658;1.312;2024-01-16T00:04:37;12.70;99.90
31729;DHT22;18309;43.658;1.312;2024-01-16T00:07:04;12.70;99.90
31729;DHT22;18309;43.658;1.312;2024-01-16T00:09:33;12.70;99.90
31729;DHT22;18309;43.658;1.312;2024-01-16T00:11:59;12.70;99.90
31729;DHT22;18309;43.658;1.312;2024-01-16T00:14:25;12.70;99.90
31729;DHT22;18309;43.658;1.312;2024-01-16T00:16:51;12.70;99.90
31729;DHT22;18309;43.658;1.312;2024-01-16T00:19:16;12.70;99.90
31729;DHT22;18309;43.658;1.312;2024-01-16T00:21:43;12.70;99.90
31729;DHT22;18309;43.658;1.312;2024-01-16T00:24:12;12.70;99.90
31729;DHT22;18309;43.658;1.312;2024-01-16T00:26:37;12.70;99.90
31729;DHT22;18309;43.658;1.312;2024-01-16T00:29:05;12.70;99.90
31729;DHT22;18309;43.658;1.312;2024-01-16T00:31:31;12.70;99.90
31729;DHT22;18309;43.658;1.312;2024-01-16T00:33:56;12.70;99.90
31729;DHT22;18309;43.658;1.312;2024-01-16T00:36:22;12.70;99.90
31729;DHT22;18309;43.658;1.312;2024-01-16T00:38:48;12.70;99.90
31729;DHT22;18309;43.658;1.312;2024-01-16T00:41:13;12.80;99.90
31729;DHT22;18309;43.658;1.312;2024-01-16T00:43:43;12.70;99.90
31729;DHT22;18309;43.658;1.312;2024-01-16T00:46:09;12.70;99.90
31729;DHT22;18309;43.658;1.312;2024-01-16T00:48:35;12.80;99.90
31729;DHT22;18309;43.658;1.312;2024-01-16T00:51:00;12.80;99.90
31729;DHT22;18309;43.658;1.312;2024-01-16T00:53:26;12.80;99.90
31729;DHT22;18309;43.658;1.312;2024-01-16T00:55:52;12.80;99.90
31729;DHT22;18309;43.658;1.312;2024-01-16T00:58:21;12.80;99.90
31729;DHT22;18309;43.658;1.312;2024-01-16T01:00:46;12.80;99.90
31729;DHT22;18309;43.658;1.312;2024-01-16T01:03:12;12.80;99.90
31729;DHT22;18309;43.658;1.312;2024-01-16T01:05:38;12.80;99.90
31729;DHT22;18309;43.658;1.312;2024-01-16T01:08:04;12.80;99.90
31729;DHT22;18309;43.658;1.312;2024-01-16T01:10:30;12.80;99.90
31729;DHT22;18309;43.658;1.312;2024-01-16T01:12:55;12.80;99.90
31729;DHT22;18309;43.658;1.312;2024-01-16T01:15:22;12.80;99.90
31729;DHT22;18309;43.658;1.312;2024-01-16T01:17:51;12.80;99.90
31729;DHT22;18309;43.658;1.312;2024-01-16T01:20:18;12.80;99.90
31729;DHT22;18309;43.658;1.312;2024-01-16T01:22:45;12.80;99.90
31729;DHT22;18309;43.658;1.312;2024-01-16T01:25:14;12.80;99.90
31729;DHT22;18309;43.658;1.312;2024-01-16T01:27:40;12.80;99.90
31729;DHT22;18309;43.658;1.312;2024-01-16T01:30:09;12.90;99.90
31729;DHT22;18309;43.658;1.312;2024-01-16T01:32:36;12.80;99.90
31729;DHT22;18309;43.658;1.312;2024-01-16T01:35:02;12.90;99.90
31729;DHT22;18309;43.658;1.312;2024-01-16T01:37:28;12.90;99.90
31729;DHT22;18309;43.658;1.312;2024-01-16T01:39:54;12.90;99.90
31729;DHT22;18309;43.658;1.312;2024-01-16T01:42:19;12.90;99.90
31729;DHT22;18309;43.658;1.312;2024-01-16T01:44:45;12.90;99.90
31729;DHT22;18309;43.658;1.312;2024-01-16T01:47:11;12.90;99.90
31729;DHT22;18309;43.658;1.312;2024-01-16T01:49:37;12.90;99.90
31729;DHT22;18309;43.658;1.312;2024-01-16T01:52:04;12.90;99.90
31729;DHT22;18309;43.658;1.312;2024-01-16T01:54:31;12.90;99.90
31729;DHT22;18309;43.658;1.312;2024-01-16T01:56:59;12.90;99.90
31729;DHT22;18309;43.658;1.312;2024-01-16T01:59:25;12.90;99.90
31729;DHT22;18309;43.658;1.312;2024-01-16T02:01:52;12.90;99.90
31729;DHT22;18309;43.658;1.312;2024-01-16T02:04:19;12.90;99.90
31729;DHT22;18309;43.658;1.312;2024-01-16T02:06:45;12.90;99.90
31729;DHT22;18309;43.658;1.312;2024-01-16T02:09:12;12.90;99.90
31729;DHT22;18309;43.658;1.312;2024-01-16T02:11:42;12.90;99.90
31729;DHT22;18309;43.658;1.312;2024-01-16T02:14:08;12.90;99.90
31729;DHT22;18309;43.658;1.312;2024-01-16T02:16:39;12.90;99.90
31729;DHT22;18309;43.658;1.312;2024-01-16T02:19:06;12.90;99.90
31729;DHT22;18309;43.658;1.312;2024-01-16T02:21:37;13.00;99.90
31729;DHT22;18309;43.658;1.312;2024-01-16T02:24:05;13.00;99.90
31729;DHT22;18309;43.658;1.312;2024-01-16T02:26:32;13.00;99.90
31729;DHT22;18309;43.658;1.312;2024-01-16T02:28:58;13.00;99.90
31729;DHT22;18309;43.658;1.312;2024-01-16T02:31:25;13.00;99.90
31729;DHT22;18309;43.658;1.312;2024-01-16T02:33:51;13.00;99.90
31729;DHT22;18309;43.658;1.312;2024-01-16T02:36:17;13.00;99.90
31729;DHT22;18309;43.658;1.312;2024-01-16T02:38:42;13.00;99.90
31729;DHT22;18309;43.658;1.312;2024-01-16T02:41:08;13.00;99.90
31729;DHT22;18309;43.658;1.312;2024-01-16T02:43:34;13.00;99.90
31729;DHT22;18309;43.658;1.312;2024-01-16T02:45:59;13.00;99.90
31729;DHT22;18309;43.658;1.312;2024-01-16T02:48:25;13.00;99.90
31729;DHT22;18309;43.658;1.312;2024-01-16T02:50:51;13.00;99.90
31729;DHT22;18309;43.658;1.312;2024-01-16T02:53:16;13.00;99.90
31729;DHT22;18309;43.658;1.312;2024-01-16T02:55:42;13.00;99.90
31729;DHT22;18309;43.658;1.312;2024-01-16T02:58:08;13.00;99.90
31729;DHT22;18309;43.658;1.312;2024-01-16T03:00:33;13.00;99.90
31729;DHT22;18309;43.658;1.312;2024-01-16T03:02:59;13.00;99.90
31729;DHT22;18309;43.658;1.312;2024-01-16T03:05:25;13.00;99.90
31729;DHT22;18309;43.658;1.312;2024-01-16T03:07:51;13.00;99.90
31729;DHT22;18309;43.658;1.312;2024-01-16T03:10:16;13.00;99.90
31729;DHT22;18309;43.658;1.312;2024-01-16T03:12:42;13.00;99.90
31729;DHT22;18309;43.658;1.312;2024-01-16T03:15:08;13.00;99.90
31729;DHT22;18309;43.658;1.312;2024-01-16T03:17:34;13.00;99.90
31729;DHT22;18309;43.658;1.312;2024-01-16T03:19:59;13.00;99.90
31729;DHT22;18309;43.658;1.312;2024-01-16T03:22:25;13.00;99.90
31729;DHT22;18309;43.658;1.312;2024-01-16T03:24:51;13.00;99.90
31729;DHT22;18309;43.658;1.312;2024-01-16T03:27:16;13.00;99.90
31729;DHT22;18309;43.658;1.312;2024-01-16T03:29:42;13.00;99.90
31729;DHT22;18309;43.658;1.312;2024-01-16T03:32:08;13.00;99.90
31729;DHT22;18309;43.658;1.312;2024-01-16T03:34:33;13.00;99.90
31729;DHT22;18309;43.658;1.312;2024-01-16T03:36:59;13.00;99.90
31729;DHT22;18309;43.658;1.312;2024-01-16T03:39:25;13.00;99.90
31729;DHT22;18309;43.658;1.312;2024-01-16T03:41:50;13.00;99.90
31729;DHT22;18309;43.658;1.312;2024-01-16T03:44:16;13.00;99.90
31729;DHT22;18309;43.658;1.312;2024-01-16T03:46:42;13.10;99.90
31729;DHT22;18309;43.658;1.312;2024-01-16T03:49:07;13.00;99.90
31729;DHT22;18309;43.658;1.312;2024-01-16T03:51:33;13.00;99.90
31729;DHT22;18309;43.658;1.312;2024-01-16T03:53:59;13.00;99.90
31729;DHT22;18309;43.658;1.312;2024-01-16T03:56:24;13.00;99.90
31729;DHT22;18309;43.658;1.312;2024-01-16T03:58:50;13.00;99.90
31729;DHT22;18309;43.658;1.312;2024-01-16T04:01:16;13.00;99.90
31729;DHT22;18309;43.658;1.312;2024-01-16T04:03:41;13.00;99.90
31729;DHT22;18309;43.658;1.312;2024-01-16T04:06:17;13.00;99.90
31729;DHT22;18309;43.658;1.312;2024-01-16T04:08:43;13.00;99.90
31729;DHT22;18309;43.658;1.312;2024-01-16T04:11:12;13.00;99.90
31729;DHT22;18309;43.658;1.312;2024-01-16T04:13:39;13.00;99.90
31729;DHT22;18309;43.658;1.312;2024-01-16T04:16:05;13.00;99.90
31729;DHT22;18309;43.658;1.312;2024-01-16T04:18:38;13.00;99.90
31729;DHT22;18309;43.658;1.312;2024-01-16T04:21:04;13.00;99.90
31729;DHT22;18309;43.658;1.312;2024-01-16T04:23:30;13.00;99.90
31729;DHT22;18309;43.658;1.312;2024-01-16T04:25:56;13.00;99.90
31729;DHT22;18309;43.658;1.312;2024-01-16T04:28:21;13.10;99.90
31729;DHT22;18309;43.658;1.312;2024-01-16T04:30:47;13.00;99.90
31729;DHT22;18309;43.658;1.312;2024-01-16T04:33:13;13.00;99.90
31729;DHT22;18309;43.658;1.312;2024-01-16T04:35:38;13.00;99.90
31729;DHT22;18309;43.658;1.312;2024-01-16T04:38:04;13.00;99.90
31729;DHT22;18309;43.658;1.312;2024-01-16T04:40:30;13.00;99.90
31729;DHT22;18309;43.658;1.312;2024-01-16T04:42:55;13.00;99.90
31729;DHT22;18309;43.658;1.312;2024-01-16T04:45:21;13.00;99.90
31729;DHT22;18309;43.658;1.312;2024-01-16T04:47:47;13.00;99.90
31729;DHT22;18309;43.658;1.312;2024-01-16T04:50:13;13.00;99.90
31729;DHT22;18309;43.658;1.312;2024-01-16T04:52:39;13.00;99.90
31729;DHT22;18309;43.658;1.312;2024-01-16T04:55:05;13.00;99.90
31729;DHT22;18309;43.658;1.312;2024-01-16T04:57:31;13.00;99.90
31729;DHT22;18309;43.658;1.312;2024-01-16T04:59:57;13.00;99.90
31729;DHT22;18309;43.658;1.312;2024-01-16T05:02:22;13.00;99.90
31729;DHT22;18309;43.658;1.312;2024-01-16T05:04:48;13.00;99.90
31729;DHT22;18309;43.658;1.312;2024-01-16T05:07:22;13.00;99.90
31729;DHT22;18309;43.658;1.312;2024-01-16T05:09:48;13.00;99.90
31729;DHT22;18309;43.658;1.312;2024-01-16T05:12:14;13.00;99.90
31729;DHT22;18309;43.658;1.312;2024-01-16T05:14:40;13.00;99.90
31729;DHT22;18309;43.658;1.312;2024-01-16T05:17:06;13.00;99.90
31729;DHT22;18309;43.658;1.312;2024-01-16T05:19:32;13.00;99.90
31729;DHT22;18309;43.658;1.312;2024-01-16T05:21:57;13.00;99.90
31729;DHT22;18309;43.658;1.312;2024-01-16T05:24:23;13.00;99.90
31729;DHT22;18309;43.658;1.312;2024-01-16T05:26:49;13.00;99.90
31729;DHT22;18309;43.658;1.312;2024-01-16T05:29:14;13.00;99.90
31729;DHT22;18309;43.658;1.312;2024-01-16T05:31:41;12.90;99.90
31729;DHT22;18309;43.658;1.312;2024-01-16T05:34:08;13.00;99.90
31729;DHT22;18309;43.658;1.312;2024-01-16T05:36:34;13.00;99.90
31729;DHT22;18309;43.658;1.312;2024-01-16T05:38:59;13.00;99.90
31729;DHT22;18309;43.658;1.312;2024-01-16T05:41:25;12.90;99.90
31729;DHT22;18309;43.658;1.312;2024-01-16T05:43:50;12.90;99.90
31729;DHT22;18309;43.658;1.312;2024-01-16T05:46:16;12.90;99.90
31729;DHT22;18309;43.658;1.312;2024-01-16T05:48:42;12.90;99.90
31729;DHT22;18309;43.658;1.312;2024-01-16T05:51:08;12.90;99.90
31729;DHT22;18309;43.658;1.312;2024-01-16T05:53:34;12.90;99.90
31729;DHT22;18309;43.658;1.312;2024-01-16T05:55:59;12.90;99.90
31729;DHT22;18309;43.658;1.312;2024-01-16T05:58:25;12.80;99.90
31729;DHT22;18309;43.658;1.312;2024-01-16T06:00:51;12.90;99.90
31729;DHT22;18309;43.658;1.312;2024-01-16T06:03:17;12.90;99.90
31729;DHT22;18309;43.658;1.312;2024-01-16T06:05:42;12.90;99.90
31729;DHT22;18309;43.658;1.312;2024-01-16T06:08:08;12.90;99.90
31729;DHT22;18309;43.658;1.312;2024-01-16T06:10:34;12.80;99.90
31729;DHT22;18309;43.658;1.312;2024-01-16T06:12:59;12.80;99.90
31729;DHT22;18309;43.658;1.312;2024-01-16T06:15:25;12.80;99.90
31729;DHT22;18309;43.658;1.312;2024-01-16T06:17:50;12.80;99.90
31729;DHT22;18309;43.658;1.312;2024-01-16T06:20:16;12.80;99.90
31729;DHT22;18309;43.658;1.312;2024-01-16T06:22:42;12.80;99.90
31729;DHT22;18309;43.658;1.312;2024-01-16T06:25:09;12.70;99.90
31729;DHT22;18309;43.658;1.312;2024-01-16T06:27:34;12.70;99.90
31729;DHT22;18309;43.658;1.312;2024-01-16T06:30:00;12.70;99.90
31729;DHT22;18309;43.658;1.312;2024-01-16T06:32:25;12.70;99.90
31729;DHT22;18309;43.658;1.312;2024-01-16T06:34:51;12.70;99.90
31729;DHT22;18309;43.658;1.312;2024-01-16T06:37:17;12.70;99.90
31729;DHT22;18309;43.658;1.312;2024-01-16T06:39:42;12.70;99.90
31729;DHT22;18309;43.658;1.312;2024-01-16T06:42:08;12.60;99.90
31729;DHT22;18309;43.658;1.312;2024-01-16T06:44:34;12.60;99.90
31729;DHT22;18309;43.658;1.312;2024-01-16T06:47:00;12.60;99.90
31729;DHT22;18309;43.658;1.312;2024-01-16T06:49:25;12.60;99.90
31729;DHT22;18309;43.658;1.312;2024-01-16T06:51:52;12.60;99.90
31729;DHT22;18309;43.658;1.312;2024-01-16T06:54:18;12.60;99.90
31729;DHT22;18309;43.658;1.312;2024-01-16T06:56:45;12.60;99.90
31729;DHT22;18309;43.658;1.312;2024-01-16T06:59:11;12.60;99.90
31729;DHT22;18309;43.658;1.312;2024-01-16T07:01:37;12.60;99.90
31729;DHT22;18309;43.658;1.312;2024-01-16T07:04:03;12.60;99.90
31729;DHT22;18309;43.658;1.312;2024-01-16T07:06:29;12.60;99.90
31729;DHT22;18309;43.658;1.312;2024-01-16T07:08:54;12.60;99.90
31729;DHT22;18309;43.658;1.312;2024-01-16T07:11:20;12.60;99.90
31729;DHT22;18309;43.658;1.312;2024-01-16T07:13:46;12.60;99.90
31729;DHT22;18309;43.658;1.312;2024-01-16T07:16:12;12.60;99.90
31729;DHT22;18309;43.658;1.312;2024-01-16T07:18:38;12.60;99.90
31729;DHT22;18309;43.658;1.312;2024-01-16T07:21:18;12.60;99.90
31729;DHT22;18309;43.658;1.312;2024-01-16T07:23:44;12.60;99.90
31729;DHT22;18309;43.658;1.312;2024-01-16T07:26:10;12.50;99.90
31729;DHT22;18309;43.658;1.312;2024-01-16T07:28:36;12.50;99.90
31729;DHT22;18309;43.658;1.312;2024-01-16T07:31:01;12.50;99.90
31729;DHT22;18309;43.658;1.312;2024-01-16T07:33:27;12.50;99.90
31729;DHT22;18309;43.658;1.312;2024-01-16T07:35:54;12.50;99.90
31729;DHT22;18309;43.658;1.312;2024-01-16T07:38:20;12.50;99.90
31729;DHT22;18309;43.658;1.312;2024-01-16T07:40:46;12.50;99.90
31729;DHT22;18309;43.658;1.312;2024-01-16T07:43:11;12.50;99.90
31729;DHT22;18309;43.658;1.312;2024-01-16T07:45:37;12.50;99.90
31729;DHT22;18309;43.658;1.312;2024-01-16T07:48:03;12.50;99.90
31729;DHT22;18309;43.658;1.312;2024-01-16T07:50:29;12.50;99.90
31729;DHT22;18309;43.658;1.312;2024-01-16T07:52:55;12.50;99.90
31729;DHT22;18309;43.658;1.312;2024-01-16T07:55:21;12.40;99.90
31729;DHT22;18309;43.658;1.312;2024-01-16T07:57:46;12.40;99.90
31729;DHT22;18309;43.658;1.312;2024-01-16T08:00:12;12.50;99.90
31729;DHT22;18309;43.658;1.312;2024-01-16T08:02:38;12.30;99.90
31729;DHT22;18309;43.658;1.312;2024-01-16T08:05:04;12.10;99.90
31729;DHT22;18309;43.658;1.312;2024-01-16T08:07:30;12.00;99.90
31729;DHT22;18309;43.658;1.312;2024-01-16T08:09:57;11.90;99.90
31729;DHT22;18309;43.658;1.312;2024-01-16T08:12:23;11.90;99.90
31729;DHT22;18309;43.658;1.312;2024-01-16T08:14:48;11.80;99.90
31729;DHT22;18309;43.658;1.312;2024-01-16T08:17:14;11.80;99.90
31729;DHT22;18309;43.658;1.312;2024-01-16T08:19:41;11.80;99.90
31729;DHT22;18309;43.658;1.312;2024-01-16T08:22:06;11.80;99.90
31729;DHT22;18309;43.658;1.312;2024-01-16T08:24:32;11.80;99.90
31729;DHT22;18309;43.658;1.312;2024-01-16T08:26:58;11.90;99.90
31729;DHT22;18309;43.658;1.312;2024-01-16T08:29:24;11.90;99.90
31729;DHT22;18309;43.658;1.312;2024-01-16T08:31:50;11.90;99.90
31729;DHT22;18309;43.658;1.312;2024-01-16T08:34:17;11.90;99.90
31729;DHT22;18309;43.658;1.312;2024-01-16T08:36:44;11.90;99.90
31729;DHT22;18309;43.658;1.312;2024-01-16T08:39:10;11.90;99.90
31729;DHT22;18309;43.658;1.312;2024-01-16T08:41:36;11.90;99.90
31729;DHT22;18309;43.658;1.312;2024-01-16T08:44:02;11.90;99.90
31729;DHT22;18309;43.658;1.312;2024-01-16T08:46:27;12.00;99.90
31729;DHT22;18309;43.658;1.312;2024-01-16T08:48:53;12.10;99.90
31729;DHT22;18309;43.658;1.312;2024-01-16T08:51:19;12.10;99.90
31729;DHT22;18309;43.658;1.312;2024-01-16T08:53:45;12.20;99.90
31729;DHT22;18309;43.658;1.312;2024-01-16T08:56:11;12.30;99.90
31729;DHT22;18309;43.658;1.312;2024-01-16T08:58:38;12.40;99.90
31729;DHT22;18309;43.658;1.312;2024-01-16T09:01:06;12.40;99.90
31729;DHT22;18309;43.658;1.312;2024-01-16T09:03:32;12.40;99.90
31729;DHT22;18309;43.658;1.312;2024-01-16T09:05:58;12.30;99.90
31729;DHT22;18309;43.658;1.312;2024-01-16T09:08:25;12.40;99.90
31729;DHT22;18309;43.658;1.312;2024-01-16T09:10:52;12.50;99.90
31729;DHT22;18309;43.658;1.312;2024-01-16T09:13:18;12.50;99.90
31729;DHT22;18309;43.658;1.312;2024-01-16T09:15:46;12.50;99.90
31729;DHT22;18309;43.658;1.312;2024-01-16T09:18:12;12.50;99.90
31729;DHT22;18309;43.658;1.312;2024-01-16T09:20:38;12.50;99.90
31729;DHT22;18309;43.658;1.312;2024-01-16T09:23:04;12.50;99.90
31729;DHT22;18309;43.658;1.312;2024-01-16T09:25:30;12.50;99.90
31729;DHT22;18309;43.658;1.312;2024-01-16T09:27:55;12.50;99.90
31729;DHT22;18309;43.658;1.312;2024-01-16T09:30:21;12.60;99.90
31729;DHT22;18309;43.658;1.312;2024-01-16T09:32:48;12.70;99.90
31729;DHT22;18309;43.658;1.312;2024-01-16T09:35:14;12.70;99.90
31729;DHT22;18309;43.658;1.312;2024-01-16T09:37:40;12.60;99.90
31729;DHT22;18309;43.658;1.312;2024-01-16T09:40:07;12.70;99.90
31729;DHT22;18309;43.658;1.312;2024-01-16T09:42:33;12.60;99.90
31729;DHT22;18309;43.658;1.312;2024-01-16T09:45:00;12.70;99.90
31729;DHT22;18309;43.658;1.312;2024-01-16T09:47:32;12.80;99.90
31729;DHT22;18309;43.658;1.312;2024-01-16T09:49:59;12.80;99.90
31729;DHT22;18309;43.658;1.312;2024-01-16T09:52:28;12.80;99.90
31729;DHT22;18309;43.658;1.312;2024-01-16T09:54:55;12.90;99.90
31729;DHT22;18309;43.658;1.312;2024-01-16T09:57:25;13.00;99.90
31729;DHT22;18309;43.658;1.312;2024-01-16T09:59:55;13.10;99.90
31729;DHT22;18309;43.658;1.312;2024-01-16T10:02:21;13.00;99.90
31729;DHT22;18309;43.658;1.312;2024-01-16T10:04:48;13.00;99.90
31729;DHT22;18309;43.658;1.312;2024-01-16T10:07:14;13.00;99.90
31729;DHT22;18309;43.658;1.312;2024-01-16T10:09:41;13.00;99.90
31729;DHT22;18309;43.658;1.312;2024-01-16T10:12:07;13.00;99.90
31729;DHT22;18309;43.658;1.312;2024-01-16T10:14:33;13.10;99.90
31729;DHT22;18309;43.658;1.312;2024-01-16T10:17:04;13.10;99.90
31729;DHT22;18309;43.658;1.312;2024-01-16T10:19:52;13.20;99.90
31729;DHT22;18309;43.658;1.312;2024-01-16T10:22:24;13.20;99.90
31729;DHT22;18309;43.658;1.312;2024-01-16T10:25:10;13.30;99.90
31729;DHT22;18309;43.658;1.312;2024-01-16T10:27:42;13.30;99.90
31729;DHT22;18309;43.658;1.312;2024-01-16T10:30:09;13.20;99.90
31729;DHT22;18309;43.658;1.312;2024-01-16T10:32:43;13.30;99.90
31729;DHT22;18309;43.658;1.312;2024-01-16T10:35:10;13.30;99.90
31729;DHT22;18309;43.658;1.312;2024-01-16T10:37:52;13.30;99.90
31729;DHT22;18309;43.658;1.312;2024-01-16T10:40:22;13.20;99.90
31729;DHT22;18309;43.658;1.312;2024-01-16T10:43:03;13.20;99.90
31729;DHT22;18309;43.658;1.312;2024-01-16T10:45:30;13.30;99.90
31729;DHT22;18309;43.658;1.312;2024-01-16T10:48:03;13.30;99.90
31729;DHT22;18309;43.658;1.312;2024-01-16T10:50:29;13.40;99.90
31729;DHT22;18309;43.658;1.312;2024-01-16T10:52:55;13.50;99.90
31729;DHT22;18309;43.658;1.312;2024-01-16T10:55:23;13.50;99.90
31729;DHT22;18309;43.658;1.312;2024-01-16T10:57:50;13.60;99.90
31729;DHT22;18309;43.658;1.312;2024-01-16T11:00:22;13.60;99.90
31729;DHT22;18309;43.658;1.312;2024-01-16T11:03:04;13.60;99.90
31729;DHT22;18309;43.658;1.312;2024-01-16T11:05:32;13.60;99.90
31729;DHT22;18309;43.658;1.312;2024-01-16T11:08:01;13.60;99.90
31729;DHT22;18309;43.658;1.312;2024-01-16T11:10:27;13.60;99.90
31729;DHT22;18309;43.658;1.312;2024-01-16T11:12:54;13.70;99.90
31729;DHT22;18309;43.658;1.312;2024-01-16T11:15:21;13.70;99.90
31729;DHT22;18309;43.658;1.312;2024-01-16T11:17:47;13.70;99.90
31729;DHT22;18309;43.658;1.312;2024-01-16T11:20:15;13.70;99.90
31729;DHT22;18309;43.658;1.312;2024-01-16T11:22:45;13.60;99.90
31729;DHT22;18309;43.658;1.312;2024-01-16T11:25:12;13.60;99.90
31729;DHT22;18309;43.658;1.312;2024-01-16T11:27:39;13.60;99.90
31729;DHT22;18309;43.658;1.312;2024-01-16T11:30:07;13.50;99.90
31729;DHT22;18309;43.658;1.312;2024-01-16T11:32:35;13.60;99.90
31729;DHT22;18309;43.658;1.312;2024-01-16T11:35:01;13.60;99.90
31729;DHT22;18309;43.658;1.312;2024-01-16T11:37:28;13.70;99.90
31729;DHT22;18309;43.658;1.312;2024-01-16T11:42:43;13.90;99.90
31729;DHT22;18309;43.658;1.312;2024-01-16T11:50:36;14.00;99.90
31729;DHT22;18309;43.658;1.312;2024-01-16T11:53:02;14.00;99.90
31729;DHT22;18309;43.658;1.312;2024-01-16T12:00:36;13.90;99.90
31729;DHT22;18309;43.658;1.312;2024-01-16T12:03:06;13.90;99.90
31729;DHT22;18309;43.658;1.312;2024-01-16T12:05:31;14.00;99.90
31729;DHT22;18309;43.658;1.312;2024-01-16T12:07:57;13.90;99.90
31729;DHT22;18309;43.658;1.312;2024-01-16T12:10:24;13.80;99.90
31729;DHT22;18309;43.658;1.312;2024-01-16T12:12:51;14.00;99.90
31729;DHT22;18309;43.658;1.312;2024-01-16T12:15:21;13.90;99.90
31729;DHT22;18309;43.658;1.312;2024-01-16T12:18:00;13.90;99.90
31729;DHT22;18309;43.658;1.312;2024-01-16T12:20:28;13.90;99.90
31729;DHT22;18309;43.658;1.312;2024-01-16T12:23:06;14.10;99.90
31729;DHT22;18309;43.658;1.312;2024-01-16T12:25:37;14.20;99.90
31729;DHT22;18309;43.658;1.312;2024-01-16T12:28:04;14.40;99.90
31729;DHT22;18309;43.658;1.312;2024-01-16T12:30:32;14.30;99.90
31729;DHT22;18309;43.658;1.312;2024-01-16T12:33:08;14.30;99.90
31729;DHT22;18309;43.658;1.312;2024-01-16T12:35:41;14.20;99.90
31729;DHT22;18309;43.658;1.312;2024-01-16T12:38:08;14.30;99.90
31729;DHT22;18309;43.658;1.312;2024-01-16T12:40:36;14.40;99.90
31729;DHT22;18309;43.658;1.312;2024-01-16T12:43:03;14.50;99.90
31729;DHT22;18309;43.658;1.312;2024-01-16T12:45:28;14.60;99.90
31729;DHT22;18309;43.658;1.312;2024-01-16T12:47:54;14.70;99.90
31729;DHT22;18309;43.658;1.312;2024-01-16T12:50:25;14.80;99.90
31729;DHT22;18309;43.658;1.312;2024-01-16T12:55:32;14.90;99.90
31729;DHT22;18309;43.658;1.312;2024-01-16T12:58:17;15.00;99.90
31729;DHT22;18309;43.658;1.312;2024-01-16T13:00:47;14.80;99.90
31729;DHT22;18309;43.658;1.312;2024-01-16T13:03:18;14.90;99.90
31729;DHT22;18309;43.658;1.312;2024-01-16T13:05:44;15.00;99.90
31729;DHT22;18309;43.658;1.312;2024-01-16T13:08:17;15.20;99.90
31729;DHT22;18309;43.658;1.312;2024-01-16T13:10:44;15.40;99.90
31729;DHT22;18309;43.658;1.312;2024-01-16T13:13:14;15.60;99.90
31729;DHT22;18309;43.658;1.312;2024-01-16T13:15:40;15.50;99.90
31729;DHT22;18309;43.658;1.312;2024-01-16T13:18:16;15.50;99.90
31729;DHT22;18309;43.658;1.312;2024-01-16T13:20:42;15.40;99.90
31729;DHT22;18309;43.658;1.312;2024-01-16T13:23:08;15.30;99.90
31729;DHT22;18309;43.658;1.312;2024-01-16T13:25:34;15.30;99.90
31729;DHT22;18309;43.658;1.312;2024-01-16T13:28:01;15.30;99.90
31729;DHT22;18309;43.658;1.312;2024-01-16T13:30:27;15.30;99.90
31729;DHT22;18309;43.658;1.312;2024-01-16T13:32:53;15.30;99.90
31729;DHT22;18309;43.658;1.312;2024-01-16T13:35:18;15.30;99.90
31729;DHT22;18309;43.658;1.312;2024-01-16T13:37:44;15.50;99.90
31729;DHT22;18309;43.658;1.312;2024-01-16T13:40:10;15.70;99.90
31729;DHT22;18309;43.658;1.312;2024-01-16T13:42:43;16.10;99.90
31729;DHT22;18309;43.658;1.312;2024-01-16T13:45:10;16.10;99.90
31729;DHT22;18309;43.658;1.312;2024-01-16T13:47:39;16.50;99.90
31729;DHT22;18309;43.658;1.312;2024-01-16T13:50:06;16.50;99.90
31729;DHT22;18309;43.658;1.312;2024-01-16T13:52:34;16.30;99.90
31729;DHT22;18309;43.658;1.312;2024-01-16T13:54:59;16.10;99.90
31729;DHT22;18309;43.658;1.312;2024-01-16T13:57:29;16.00;99.90
31729;DHT22;18309;43.658;1.312;2024-01-16T13:59:54;16.00;99.90
31729;DHT22;18309;43.658;1.312;2024-01-16T14:02:20;15.90;99.90
31729;DHT22;18309;43.658;1.312;2024-01-16T14:04:46;15.80;99.90
31729;DHT22;18309;43.658;1.312;2024-01-16T14:07:11;15.80;99.90
31729;DHT22;18309;43.658;1.312;2024-01-16T14:09:37;15.80;99.90
31729;DHT22;18309;43.658;1.312;2024-01-16T14:12:03;15.80;99.90
31729;DHT22;18309;43.658;1.312;2024-01-16T14:14:29;15.80;99.90
31729;DHT22;18309;43.658;1.312;2024-01-16T14:16:56;15.80;99.90
31729;DHT22;18309;43.658;1.312;2024-01-16T14:19:22;15.80;99.90
31729;DHT22;18309;43.658;1.312;2024-01-16T14:21:50;15.80;99.90
31729;DHT22;18309;43.658;1.312;2024-01-16T14:24:15;15.70;99.90
31729;DHT22;18309;43.658;1.312;2024-01-16T14:26:44;15.70;99.90
31729;DHT22;18309;43.658;1.312;2024-01-16T14:29:11;15.80;99.90
31729;DHT22;18309;43.658;1.312;2024-01-16T14:31:36;15.80;99.90
31729;DHT22;18309;43.658;1.312;2024-01-16T14:34:02;16.00;99.90
31729;DHT22;18309;43.658;1.312;2024-01-16T14:36:29;16.20;99.90
31729;DHT22;18309;43.658;1.312;2024-01-16T14:38:55;16.30;99.90
31729;DHT22;18309;43.658;1.312;2024-01-16T14:41:22;16.30;99.90
31729;DHT22;18309;43.658;1.312;2024-01-16T14:43:48;16.40;99.90
31729;DHT22;18309;43.658;1.312;2024-01-16T14:46:14;16.30;99.90
31729;DHT22;18309;43.658;1.312;2024-01-16T14:48:44;16.40;99.90
31729;DHT22;18309;43.658;1.312;2024-01-16T14:51:11;16.50;99.90
31729;DHT22;18309;43.658;1.312;2024-01-16T14:53:37;16.60;99.90
31729;DHT22;18309;43.658;1.312;2024-01-16T14:56:02;16.50;99.90
31729;DHT22;18309;43.658;1.312;2024-01-16T14:58:30;16.40;99.90
31729;DHT22;18309;43.658;1.312;2024-01-16T15:00:56;16.30;99.90
31729;DHT22;18309;43.658;1.312;2024-01-16T15:03:23;16.20;99.90
31729;DHT22;18309;43.658;1.312;2024-01-16T15:05:50;16.10;99.90
31729;DHT22;18309;43.658;1.312;2024-01-16T15:08:17;16.00;99.90
31729;DHT22;18309;43.658;1.312;2024-01-16T15:10:44;16.00;99.90
31729;DHT22;18309;43.658;1.312;2024-01-16T15:13:09;16.30;99.90
31729;DHT22;18309;43.658;1.312;2024-01-16T15:15:35;16.60;99.90
31729;DHT22;18309;43.658;1.312;2024-01-16T15:18:02;16.60;99.90
31729;DHT22;18309;43.658;1.312;2024-01-16T15:20:28;16.30;99.90
31729;DHT22;18309;43.658;1.312;2024-01-16T15:22:53;16.10;99.90
31729;DHT22;18309;43.658;1.312;2024-01-16T15:25:19;16.00;99.90
31729;DHT22;18309;43.658;1.312;2024-01-16T15:27:50;16.00;99.90
31729;DHT22;18309;43.658;1.312;2024-01-16T15:30:19;15.80;99.90
31729;DHT22;18309;43.658;1.312;2024-01-16T15:32:47;15.70;99.90
31729;DHT22;18309;43.658;1.312;2024-01-16T15:35:14;15.60;99.90
31729;DHT22;18309;43.658;1.312;2024-01-16T15:37:41;15.50;99.90
31729;DHT22;18309;43.658;1.312;2024-01-16T15:40:08;15.40;99.90
31729;DHT22;18309;43.658;1.312;2024-01-16T15:42:34;15.30;99.90
31729;DHT22;18309;43.658;1.312;2024-01-16T15:45:05;15.20;99.90